Time;durP1;ratioP1;P1;durP2;ratioP2;P2;SDS_P1;SDS_P2;PMS_P1;PMS_P2;Temp;Humidity;BMP_temperature;BMP_pressure;BME280_temperature;BME280_humidity;BME280_pressure;Samples;Min_cycle;Max_cycle;Signal;HPM_P1;HPM_P2
2023/08/30 00:01:00;;;;;;;13.77;12.60;;;;;;;15.23;83.64;100574.09;5034347;28;20196;-68
2023/08/30 00:03:27;;;;;;;12.63;11.77;;;;;;;15.12;83.87;100578.06;5034346;28;20544;-68
2023/08/30 00:05:53;;;;;;;10.67;10.07;;;;;;;15.07;84.31;100570.53;5034377;28;20259;-68
2023/08/30 00:08:20;;;;;;;13.30;12.23;;;;;;;15.03;84.19;100581.88;5033888;28;20219;-68
2023/08/30 00:10:48;;;;;;;12.73;11.83;;;;;;;14.96;84.43;100572.88;5034278;28;20184;-68
2023/08/30 00:13:14;;;;;;;10.33;9.80;;;;;;;14.88;84.12;100578.31;5033827;28;20195;-68
2023/08/30 00:15:41;;;;;;;12.10;10.97;;;;;;;14.84;83.86;100571.63;5034456;28;20237;-68
2023/08/30 00:18:07;;;;;;;12.93;11.73;;;;;;;14.79;84.21;100568.66;5033806;28;20624;-68
2023/08/30 00:20:34;;;;;;;12.23;11.50;;;;;;;14.74;84.26;100573.75;5033818;28;20738;-68
2023/08/30 00:23:01;;;;;;;13.20;12.20;;;;;;;14.70;83.99;100567.91;5033795;28;20184;-68
2023/08/30 00:25:27;;;;;;;10.27;9.83;;;;;;;14.65;84.49;100562.22;5033742;28;20219;-68
2023/08/30 00:27:54;;;;;;;12.63;11.60;;;;;;;14.60;83.93;100567.28;5033596;28;20220;-68
2023/08/30 00:30:20;;;;;;;12.23;11.40;;;;;;;14.59;84.36;100565.66;5034236;28;20192;-68
2023/08/30 00:32:47;;;;;;;10.37;9.77;;;;;;;14.55;84.07;100570.53;5033604;28;20198;-68
2023/08/30 00:35:14;;;;;;;9.27;8.73;;;;;;;14.46;84.30;100563.56;5032580;28;20544;-68
2023/08/30 00:37:40;;;;;;;10.30;9.70;;;;;;;14.40;84.52;100569.66;5032248;28;20662;-68
2023/08/30 00:40:07;;;;;;;12.23;11.23;;;;;;;14.38;84.04;100566.34;5034075;28;20196;-68
2023/08/30 00:42:34;;;;;;;10.80;10.30;;;;;;;14.31;83.73;100565.31;5033752;28;20535;-68
2023/08/30 00:45:00;;;;;;;12.27;11.57;;;;;;;14.24;83.93;100566.22;5033475;28;20188;-68
2023/08/30 00:47:27;;;;;;;13.63;12.53;;;;;;;14.16;83.97;100562.59;5033386;28;20215;-68
2023/08/30 00:49:54;;;;;;;10.60;10.00;;;;;;;14.01;84.48;100571.56;5033527;28;20204;-68
2023/08/30 00:52:20;;;;;;;15.20;13.53;;;;;;;14.01;84.55;100575.09;5032097;28;20802;-68
2023/08/30 00:54:47;;;;;;;14.20;12.70;;;;;;;13.96;85.13;100569.41;5032337;28;20690;-68
2023/08/30 00:57:13;;;;;;;12.93;12.00;;;;;;;13.93;85.34;100577.84;5033310;28;20188;-68
2023/08/30 00:59:40;;;;;;;11.93;11.07;;;;;;;13.92;85.62;100562.72;5033228;28;20215;-68
2023/08/30 01:02:07;;;;;;;11.07;10.20;;;;;;;13.92;85.59;100564.59;5033813;28;20179;-68
2023/08/30 01:04:33;;;;;;;13.73;12.50;;;;;;;13.95;85.96;100556.19;5031901;28;20203;-68
2023/08/30 01:07:00;;;;;;;10.90;10.17;;;;;;;13.96;86.05;100555.16;5033101;28;20211;-68
2023/08/30 01:09:26;;;;;;;13.03;11.93;;;;;;;13.99;86.03;100554.81;5033357;28;20265;-68
2023/08/30 01:12:04;;;;;;;10.33;9.73;;;;;;;13.98;85.99;100553.97;5033153;28;20246;-68
2023/08/30 01:14:42;;;;;;;8.47;8.27;;;;;;;13.96;86.11;100547.91;5031880;28;20192;-68
2023/08/30 01:17:10;;;;;;;7.63;7.20;;;;;;;13.93;85.91;100542.06;5033141;28;20226;-68
2023/08/30 01:19:50;;;;;;;8.07;7.90;;;;;;;13.88;85.98;100536.38;5033001;28;20273;-68
2023/08/30 01:22:26;;;;;;;8.43;8.03;;;;;;;13.85;86.00;100528.69;5031840;28;20628;-68
2023/08/30 01:25:14;;;;;;;9.23;8.87;;;;;;;13.83;85.94;100528.88;5033336;28;20186;-68
2023/08/30 01:27:43;;;;;;;11.07;10.47;;;;;;;13.81;85.76;100528.19;5033174;28;20196;-68
2023/08/30 01:30:15;;;;;;;10.43;9.77;;;;;;;13.78;85.98;100522.34;5032056;28;20202;-68
2023/08/30 01:32:43;;;;;;;9.50;9.03;;;;;;;13.77;85.92;100526.88;5033747;28;20242;-68
2023/08/30 01:35:10;;;;;;;10.97;10.43;;;;;;;13.76;86.12;100529.75;5032922;28;20191;-68
2023/08/30 01:37:39;;;;;;;12.60;11.33;;;;;;;13.73;86.08;100534.47;5031585;28;20195;-68
2023/08/30 01:40:07;;;;;;;14.57;13.03;;;;;;;13.81;85.90;100527.38;5031624;28;20203;-68
2023/08/30 01:42:36;;;;;;;17.80;14.30;;;;;;;13.88;85.80;100537.22;5033147;28;20659;-68
2023/08/30 01:45:03;;;;;;;16.20;14.80;;;;;;;13.88;85.12;100528.31;5033096;28;20196;-68
2023/08/30 01:47:31;;;;;;;14.93;13.77;;;;;;;13.75;85.78;100536.16;5032670;28;20275;-69
2023/08/30 01:49:58;;;;;;;13.37;12.40;;;;;;;13.67;85.94;100537.00;5033043;28;20567;-68
2023/08/30 01:52:26;;;;;;;15.13;11.67;;;;;;;13.63;86.18;100533.00;5033066;28;20594;-68
2023/08/30 01:54:53;;;;;;;17.10;14.63;;;;;;;13.64;86.37;100532.84;5032994;28;20192;-68
2023/08/30 01:57:20;;;;;;;14.47;13.10;;;;;;;13.64;86.14;100532.00;5032723;28;20180;-68
2023/08/30 01:59:46;;;;;;;19.80;14.13;;;;;;;13.60;86.32;100531.53;5031397;28;20223;-68
2023/08/30 02:02:13;;;;;;;14.23;13.13;;;;;;;13.58;86.52;100524.63;5032959;28;20628;-68
2023/08/30 02:04:39;;;;;;;12.47;11.30;;;;;;;13.57;86.38;100531.03;5031407;28;20655;-68
2023/08/30 02:07:46;;;;;;;15.73;14.10;;;;;;;13.55;86.51;100531.19;5032571;28;20215;-68
2023/08/30 02:10:21;;;;;;;15.17;13.87;;;;;;;13.54;87.02;100536.72;5032532;28;20192;-68
2023/08/30 02:12:50;;;;;;;25.33;16.83;;;;;;;13.59;87.64;100539.75;5032708;28;20246;-68
2023/08/30 02:15:18;;;;;;;22.63;18.00;;;;;;;13.73;86.96;100544.38;5032969;28;20211;-67
2023/08/30 02:17:46;;;;;;;21.03;18.00;;;;;;;13.77;87.60;100545.69;5034843;28;20180;-68
2023/08/30 02:20:13;;;;;;;30.07;19.73;;;;;;;13.83;87.50;100539.63;5034909;28;20200;-68
2023/08/30 02:22:39;;;;;;;19.93;17.53;;;;;;;13.93;86.82;100542.06;5034834;28;20245;-68
2023/08/30 02:25:06;;;;;;;17.50;15.97;;;;;;;13.85;86.92;100540.28;5036316;28;20529;-68
2023/08/30 02:27:34;;;;;;;16.07;14.37;;;;;;;13.77;86.83;100540.31;5034576;28;20211;-68
2023/08/30 02:30:02;;;;;;;16.63;15.03;;;;;;;13.69;86.96;100535.84;5035938;28;20183;-68
2023/08/30 02:32:28;;;;;;;13.20;12.27;;;;;;;13.67;87.17;100532.47;5036162;28;20180;-68
2023/08/30 02:34:56;;;;;;;13.07;12.00;;;;;;;13.67;87.42;100542.38;5035422;28;20196;-68
2023/08/30 02:37:23;;;;;;;16.13;14.57;;;;;;;13.69;87.43;100543.06;5034528;28;20234;-68
2023/08/30 02:39:50;;;;;;;14.87;13.47;;;;;;;13.67;87.45;100539.69;5035670;28;20199;-68
2023/08/30 02:42:16;;;;;;;22.07;16.30;;;;;;;13.64;87.25;100535.53;5035234;28;20204;-68
2023/08/30 02:44:43;;;;;;;14.50;13.17;;;;;;;13.63;87.36;100533.84;5036214;28;20709;-68
2023/08/30 02:47:09;;;;;;;15.87;14.23;;;;;;;13.66;87.02;100533.47;5035803;28;20200;-68
2023/08/30 02:49:36;;;;;;;14.17;12.97;;;;;;;13.56;87.08;100529.34;5035545;28;20691;-68
2023/08/30 02:52:02;;;;;;;18.43;15.63;;;;;;;13.50;87.07;100525.50;5035755;28;20226;-68
2023/08/30 02:54:29;;;;;;;14.23;12.97;;;;;;;13.49;87.47;100520.34;5034196;28;20663;-68
2023/08/30 02:56:55;;;;;;;16.70;14.20;;;;;;;13.46;87.15;100523.34;5034406;28;20210;-68
2023/08/30 02:59:22;;;;;;;18.73;14.20;;;;;;;13.44;86.99;100523.53;5034078;28;20277;-68
2023/08/30 03:01:48;;;;;;;15.63;14.13;;;;;;;13.36;86.48;100512.84;5035353;28;20630;-68
2023/08/30 03:04:17;;;;;;;12.73;11.83;;;;;;;13.26;86.79;100509.53;5034925;28;20692;-68
2023/08/30 03:06:44;;;;;;;17.63;15.83;;;;;;;13.22;87.10;100505.50;5036052;28;20600;-68
2023/08/30 03:09:12;;;;;;;18.63;15.90;;;;;;;13.18;86.84;100501.50;5017615;28;20243;-68
2023/08/30 03:11:38;;;;;;;14.87;13.50;;;;;;;13.16;86.67;100504.34;5035180;28;20259;-68
2023/08/30 03:14:05;;;;;;;14.03;12.83;;;;;;;13.18;86.88;100514.94;5033821;28;20196;-68
2023/08/30 03:16:32;;;;;;;15.30;13.80;;;;;;;13.17;86.91;100506.03;5035100;28;20199;-68
2023/08/30 03:18:58;;;;;;;15.73;14.20;;;;;;;13.17;87.28;100506.03;5033700;28;20208;-68
2023/08/30 03:21:25;;;;;;;15.40;13.90;;;;;;;13.15;87.04;100509.91;5034049;28;20283;-68
2023/08/30 03:23:51;;;;;;;16.87;14.93;;;;;;;13.15;87.20;100504.53;5035438;28;20184;-68
2023/08/30 03:26:17;;;;;;;23.73;16.87;;;;;;;13.16;87.16;100500.81;5033612;28;20195;-68
2023/08/30 03:28:44;;;;;;;20.97;17.73;;;;;;;13.16;87.13;100501.66;5033890;28;20220;-68
2023/08/30 03:31:16;;;;;;;30.30;19.97;;;;;;;13.13;87.32;100495.81;5033672;28;20250;-68
2023/08/30 03:33:44;;;;;;;17.47;15.77;;;;;;;13.12;87.25;100500.34;5033508;28;20191;-68
2023/08/30 03:36:13;;;;;;;14.70;13.47;;;;;;;13.10;87.53;100499.69;5034208;28;20196;-68
2023/08/30 03:38:40;;;;;;;14.90;13.53;;;;;;;13.05;87.38;100495.81;5033293;28;20215;-68
2023/08/30 03:41:07;;;;;;;17.83;15.97;;;;;;;13.00;87.32;100492.81;5033334;28;20196;-68
2023/08/30 03:43:33;;;;;;;15.50;14.00;;;;;;;12.99;87.37;100491.97;5034536;28;20203;-68
2023/08/30 03:46:01;;;;;;;18.37;15.37;;;;;;;12.98;87.38;100492.16;5034992;28;20188;-68
2023/08/30 03:48:27;;;;;;;19.83;17.07;;;;;;;12.98;87.78;100497.53;5033031;28;20633;-68
2023/08/30 03:50:55;;;;;;;19.47;16.20;;;;;;;13.01;87.80;100489.13;5033190;28;20287;-68
2023/08/30 03:53:23;;;;;;;20.93;17.57;;;;;;;13.04;87.83;100489.59;5034372;28;20214;-68
2023/08/30 03:55:49;;;;;;;18.67;15.83;;;;;;;13.06;87.87;100482.22;5034552;28;20230;-68
2023/08/30 03:58:17;;;;;;;17.60;15.80;;;;;;;13.07;87.90;100494.63;5034209;28;20691;-68
2023/08/30 04:00:44;;;;;;;19.23;16.33;;;;;;;13.11;87.87;100484.44;5032959;28;20570;-68
2023/08/30 04:03:14;;;;;;;19.97;17.90;;;;;;;13.11;88.06;100493.28;5034165;28;20560;-68
2023/08/30 04:05:41;;;;;;;20.40;16.40;;;;;;;13.13;88.35;100485.06;5032790;28;20256;-68
2023/08/30 04:08:08;;;;;;;17.80;15.07;;;;;;;13.16;88.18;100487.41;5032659;28;20278;-68
2023/08/30 04:10:39;;;;;;;17.17;14.20;;;;;;;13.16;88.28;100482.88;5032737;28;20192;-68
2023/08/30 04:13:08;;;;;;;17.53;15.90;;;;;;;13.12;88.45;100484.22;5033783;28;20204;-68
2023/08/30 04:15:36;;;;;;;18.37;15.37;;;;;;;13.10;88.38;100471.97;5032678;28;20302;-68
2023/08/30 04:18:04;;;;;;;24.17;19.30;;;;;;;13.13;88.27;100471.66;5033832;28;20210;-69
2023/08/30 04:20:32;;;;;;;25.90;18.33;;;;;;;13.15;88.56;100466.97;5033848;28;20184;-68
2023/08/30 04:23:01;;;;;;;19.07;17.20;;;;;;;13.13;88.37;100464.44;5032516;28;20187;-68
2023/08/30 04:25:30;;;;;;;16.70;15.00;;;;;;;13.11;88.21;100463.75;5033392;28;20210;-68
2023/08/30 04:27:57;;;;;;;19.47;16.70;;;;;;;13.09;88.08;100457.72;5033802;28;20234;-68
2023/08/30 04:30:25;;;;;;;20.47;17.70;;;;;;;13.07;88.48;100459.72;5032293;28;20199;-68
2023/08/30 04:32:51;;;;;;;21.60;16.97;;;;;;;13.07;88.29;100462.41;5032417;28;20195;-68
2023/08/30 04:35:18;;;;;;;17.57;15.70;;;;;;;13.08;88.39;100466.78;5032337;28;20648;-68
2023/08/30 04:37:44;;;;;;;28.77;20.90;;;;;;;13.08;88.58;100456.03;5032076;28;20237;-68
2023/08/30 04:40:11;;;;;;;23.73;18.90;;;;;;;13.08;88.44;100455.19;5032010;28;20192;-68
2023/08/30 04:42:39;;;;;;;24.20;17.17;;;;;;;13.08;88.84;100453.34;5033047;28;20206;-68
2023/08/30 04:45:07;;;;;;;22.63;17.10;;;;;;;13.12;88.56;100449.34;5032094;28;20214;-68
2023/08/30 04:47:33;;;;;;;19.60;17.50;;;;;;;13.14;89.01;100457.22;5032103;28;20192;-68
2023/08/30 04:50:01;;;;;;;24.70;20.73;;;;;;;13.10;88.63;100451.38;5031894;28;20582;-68
2023/08/30 04:52:28;;;;;;;24.03;18.83;;;;;;;13.05;88.56;100450.19;5031894;28;20195;-68
2023/08/30 04:54:56;;;;;;;28.93;20.20;;;;;;;13.00;88.78;100452.56;5031855;28;20570;-68
2023/08/30 04:57:25;;;;;;;18.30;15.60;;;;;;;12.99;88.77;100445.50;5031906;28;20195;-68
2023/08/30 04:59:51;;;;;;;29.87;20.97;;;;;;;12.97;88.85;100439.50;5033343;28;20203;-68
2023/08/30 05:02:18;;;;;;;27.73;22.57;;;;;;;12.93;89.06;100441.69;5032033;28;20188;-67
2023/08/30 05:04:53;;;;;;;24.63;20.67;;;;;;;12.93;89.39;100440.84;5032121;28;20267;-67
2023/08/30 05:07:19;;;;;;;36.73;20.57;;;;;;;12.90;89.54;100439.34;5033053;28;20184;-67
2023/08/30 05:09:46;;;;;;;32.27;20.40;;;;;;;12.90;89.25;100433.97;5031583;28;20220;-67
2023/08/30 05:12:13;;;;;;;22.47;17.20;;;;;;;12.95;89.78;100434.28;5031611;28;20255;-67
2023/08/30 05:14:40;;;;;;;32.30;20.00;;;;;;;13.01;88.69;100427.41;5031735;28;20191;-67
2023/08/30 05:17:07;;;;;;;22.67;16.37;;;;;;;13.00;89.17;100423.03;5031901;28;20220;-67
2023/08/30 05:19:33;;;;;;;20.80;16.97;;;;;;;12.98;89.24;100414.34;5031574;28;20208;-68
2023/08/30 05:22:01;;;;;;;19.13;17.17;;;;;;;12.99;89.46;100418.66;5031743;28;20210;-68
2023/08/30 05:24:28;;;;;;;25.23;19.90;;;;;;;13.00;89.36;100409.63;5031931;28;20605;-68
2023/08/30 05:26:54;;;;;;;30.57;17.70;;;;;;;13.01;88.96;100406.78;5031659;28;20223;-68
2023/08/30 05:29:24;;;;;;;22.50;18.50;;;;;;;12.99;89.58;100398.03;5031472;28;20283;-68
2023/08/30 05:31:51;;;;;;;36.50;19.47;;;;;;;13.02;89.12;100396.88;5031613;28;20192;-68
2023/08/30 05:34:25;;;;;;;24.70;19.33;;;;;;;13.01;89.45;100393.34;5032024;28;20246;-68
2023/08/30 05:37:05;;;;;;;22.50;17.53;;;;;;;13.06;89.11;100403.56;5032190;28;20553;-68
2023/08/30 05:39:52;;;;;;;21.10;17.43;;;;;;;13.10;89.44;100396.81;5028694;28;20239;-68
2023/08/30 05:42:19;;;;;;;32.77;19.33;;;;;;;13.13;89.50;100391.13;5031600;28;20235;-68
2023/08/30 05:44:47;;;;;;;25.93;18.33;;;;;;;13.15;89.50;100394.50;5033050;28;20310;-68
2023/08/30 05:47:15;;;;;;;32.53;19.33;;;;;;;13.18;89.51;100388.75;5031540;28;20207;-68
2023/08/30 05:49:41;;;;;;;40.50;23.33;;;;;;;13.19;89.62;100387.75;5031381;28;20234;-68
2023/08/30 05:52:08;;;;;;;39.80;25.53;;;;;;;13.21;89.71;100383.88;5036033;28;20188;-71
2023/08/30 05:54:35;;;;;;;33.53;22.57;;;;;;;13.28;89.67;100387.50;5035233;28;20195;-71
2023/08/30 05:57:01;;;;;;;30.17;21.43;;;;;;;13.34;89.57;100379.75;5035328;28;20192;-71
2023/08/30 05:59:28;;;;;;;33.67;24.40;;;;;;;13.41;89.54;100376.19;5035141;28;20216;-71
2023/08/30 06:01:55;;;;;;;36.97;24.43;;;;;;;13.47;89.58;100374.63;5036658;28;20565;-72
2023/08/30 06:04:22;;;;;;;35.13;20.77;;;;;;;13.52;89.68;100369.56;5036407;28;20196;-72
2023/08/30 06:06:48;;;;;;;28.17;19.47;;;;;;;13.56;89.27;100369.03;5037390;28;20242;-72
2023/08/30 06:09:14;;;;;;;42.90;23.07;;;;;;;13.59;89.47;100368.66;5036259;28;20301;-72
2023/08/30 06:11:41;;;;;;;42.23;23.20;;;;;;;13.66;89.53;100368.81;5036222;28;20229;-71
2023/08/30 06:14:07;;;;;;;37.67;21.83;;;;;;;13.73;89.50;100367.91;5037343;28;20200;-71
2023/08/30 06:16:34;;;;;;;41.50;27.07;;;;;;;13.73;89.15;100364.38;5036265;28;20238;-71
2023/08/30 06:19:00;;;;;;;40.20;24.37;;;;;;;13.77;89.63;100363.00;5036248;28;20240;-71
2023/08/30 06:21:27;;;;;;;37.23;24.13;;;;;;;13.84;88.95;100361.25;5036636;28;20195;-70
2023/08/30 06:23:53;;;;;;;46.00;26.00;;;;;;;13.93;88.71;100365.53;5036370;28;20694;-69
2023/08/30 06:26:20;;;;;;;35.83;24.70;;;;;;;13.96;88.99;100362.47;5036837;28;20256;-71
2023/08/30 06:28:46;;;;;;;29.20;21.03;;;;;;;14.01;88.57;100367.28;5036405;28;20208;-70
2023/08/30 06:31:29;;;;;;;39.27;24.10;;;;;;;14.08;88.68;100365.56;5036471;28;20184;-71
2023/08/30 06:33:56;;;;;;;65.17;27.13;;;;;;;14.10;87.94;100358.97;5036083;28;20262;-71
2023/08/30 06:36:23;;;;;;;42.80;24.30;;;;;;;14.17;87.63;100356.41;5034557;28;20242;-71
2023/08/30 06:38:50;;;;;;;30.37;22.10;;;;;;;14.24;87.74;100359.19;5036014;28;20208;-70
2023/08/30 06:41:16;;;;;;;37.50;25.03;;;;;;;14.30;86.94;100361.16;5035775;28;20665;-70
2023/08/30 06:43:42;;;;;;;32.43;24.27;;;;;;;14.37;87.05;100344.13;5036335;28;20238;-70
2023/08/30 06:46:09;;;;;;;63.80;24.77;;;;;;;14.44;86.37;100349.56;5035608;28;20234;-70
2023/08/30 06:48:35;;;;;;;37.23;22.60;;;;;;;14.47;85.36;100344.66;5035445;28;20208;-70
2023/08/30 06:51:02;;;;;;;39.60;23.57;;;;;;;14.48;85.04;100342.81;5035520;28;20188;-70
2023/08/30 06:53:28;;;;;;;28.93;21.70;;;;;;;14.51;85.50;100342.44;5036341;28;20184;-70
2023/08/30 06:55:59;;;;;;;36.43;22.67;;;;;;;14.56;85.37;100340.84;5035702;28;20192;-70
2023/08/30 06:58:26;;;;;;;27.50;21.17;;;;;;;14.63;85.00;100343.66;5035272;28;20240;-70
2023/08/30 07:00:53;;;;;;;29.63;21.97;;;;;;;14.63;84.27;100344.47;5035566;28;20202;-70
2023/08/30 07:03:20;;;;;;;39.30;21.73;;;;;;;14.72;84.37;100347.06;5036064;28;20172;-71
2023/08/30 07:05:49;;;;;;;30.00;23.33;;;;;;;14.73;83.42;100346.03;5035236;28;20613;-71
2023/08/30 07:08:15;;;;;;;26.50;19.67;;;;;;;14.73;83.97;100340.63;5035311;28;20262;-71
2023/08/30 07:10:42;;;;;;;29.30;22.67;;;;;;;14.85;83.64;100339.16;5035492;28;20558;-71
2023/08/30 07:13:12;;;;;;;28.33;20.37;;;;;;;14.88;83.69;100331.53;5035263;28;20192;-70
2023/08/30 07:15:40;;;;;;;35.43;21.23;;;;;;;14.95;83.61;100332.44;5035541;28;20267;-71
2023/08/30 07:18:08;;;;;;;34.03;21.20;;;;;;;15.07;83.00;100328.22;5034350;28;20219;-71
2023/08/30 07:20:36;;;;;;;36.40;21.77;;;;;;;15.21;82.08;100342.66;5035014;28;20229;-70
2023/08/30 07:23:03;;;;;;;26.43;20.33;;;;;;;15.21;81.22;100329.22;5035562;28;20180;-70
2023/08/30 07:25:30;;;;;;;27.07;20.20;;;;;;;15.28;81.55;100327.41;5034884;28;20195;-70
2023/08/30 07:27:57;;;;;;;22.00;18.97;;;;;;;15.42;80.50;100317.59;5035071;28;20207;-70
2023/08/30 07:30:23;;;;;;;22.27;19.40;;;;;;;15.50;80.94;100318.34;5035014;28;20568;-71
2023/08/30 07:32:50;;;;;;;25.63;20.13;;;;;;;15.57;80.00;100322.97;5034786;28;20234;-71
2023/08/30 07:35:16;;;;;;;28.63;19.50;;;;;;;15.66;80.06;100319.13;5033637;28;20655;-71
2023/08/30 07:37:43;;;;;;;26.10;19.80;;;;;;;15.80;79.43;100324.41;5034805;28;20652;-70
2023/08/30 07:40:10;;;;;;;44.30;22.00;;;;;;;15.85;79.54;100321.13;5034847;28;20230;-71
2023/08/30 07:42:37;;;;;;;26.03;19.30;;;;;;;15.92;77.50;100317.44;5034873;28;20233;-71
2023/08/30 07:45:04;;;;;;;21.03;18.03;;;;;;;16.09;77.89;100317.13;5034541;28;20196;-71
2023/08/30 07:47:30;;;;;;;21.87;17.27;;;;;;;16.12;76.44;100316.75;5034408;28;20220;-71
2023/08/30 07:49:57;;;;;;;18.13;15.47;;;;;;;16.19;76.94;100310.38;5034422;28;20702;-71
2023/08/30 07:52:23;;;;;;;18.33;16.63;;;;;;;16.34;75.41;100313.78;5034397;28;20183;-71
2023/08/30 07:55:09;;;;;;;19.47;15.87;;;;;;;16.46;75.75;100322.16;5034892;28;20202;-71
2023/08/30 07:57:35;;;;;;;21.10;17.33;;;;;;;16.54;75.35;100318.47;5034210;28;20659;-70
2023/08/30 08:00:03;;;;;;;16.67;14.87;;;;;;;16.58;75.00;100322.44;5034143;28;20238;-71
2023/08/30 08:02:37;;;;;;;15.97;14.63;;;;;;;16.67;74.78;100321.25;5034436;28;20167;-71
2023/08/30 08:05:03;;;;;;;19.47;15.30;;;;;;;16.75;74.10;100319.22;5034353;28;20188;-71
2023/08/30 08:07:30;;;;;;;18.80;14.33;;;;;;;16.84;74.34;100317.16;5035050;28;20584;-70
2023/08/30 08:09:57;;;;;;;22.40;12.73;;;;;;;16.90;72.22;100324.44;5034028;28;20207;-70
2023/08/30 08:12:23;;;;;;;13.40;12.27;;;;;;;16.94;71.53;100320.31;5033904;28;20216;-70
2023/08/30 08:14:50;;;;;;;12.00;10.87;;;;;;;17.02;71.57;100322.81;5033700;28;20180;-71
2023/08/30 08:17:16;;;;;;;12.03;11.23;;;;;;;17.11;70.90;100323.47;5033962;28;20230;-70
2023/08/30 08:19:43;;;;;;;10.70;9.90;;;;;;;17.12;70.25;100323.28;5033836;28;20196;-71
2023/08/30 08:22:10;;;;;;;9.93;9.43;;;;;;;17.34;68.52;100319.38;5033847;28;20226;-72
2023/08/30 08:24:37;;;;;;;23.27;10.50;;;;;;;17.32;68.61;100318.75;5034081;28;20218;-71
2023/08/30 08:27:05;;;;;;;11.13;10.17;;;;;;;17.36;69.03;100311.06;5033805;28;20192;-71
2023/08/30 08:29:31;;;;;;;8.80;8.40;;;;;;;17.44;69.74;100312.75;5033628;28;20216;-71
2023/08/30 08:31:58;;;;;;;9.57;9.17;;;;;;;17.47;68.86;100306.91;5033936;28;20238;-71
2023/08/30 08:34:24;;;;;;;9.33;8.53;;;;;;;17.44;69.03;100313.56;5033691;28;20246;-71
2023/08/30 08:36:51;;;;;;;9.50;8.53;;;;;;;17.42;67.71;100320.22;5034263;28;20172;-70
2023/08/30 08:39:18;;;;;;;8.37;7.97;;;;;;;17.40;67.74;100316.91;5033625;28;20214;-71
2023/08/30 08:41:45;;;;;;;8.43;7.93;;;;;;;17.35;67.06;100312.91;5034112;28;20172;-71
2023/08/30 08:44:12;;;;;;;8.13;7.43;;;;;;;17.40;67.78;100306.91;5033739;28;20648;-71
2023/08/30 08:46:40;;;;;;;8.60;7.90;;;;;;;17.46;67.53;100310.66;5033406;28;20211;-71
2023/08/30 08:49:15;;;;;;;7.70;7.17;;;;;;;17.46;67.78;100305.25;5033550;28;20297;-71
2023/08/30 08:51:43;;;;;;;7.83;7.27;;;;;;;17.38;67.99;100302.75;5033377;28;20187;-71
2023/08/30 08:54:11;;;;;;;7.43;7.13;;;;;;;17.44;68.15;100299.25;5033663;28;20180;-71
2023/08/30 08:56:38;;;;;;;7.87;7.53;;;;;;;17.50;67.95;100298.38;5033779;28;20238;-71
2023/08/30 08:59:07;;;;;;;6.90;6.57;;;;;;;17.49;68.64;100300.25;5033390;28;20265;-70
2023/08/30 09:01:35;;;;;;;8.27;6.87;;;;;;;17.52;67.89;100296.34;5033585;28;20171;-71
2023/08/30 09:04:07;;;;;;;9.13;8.37;;;;;;;17.54;67.10;100297.78;5033221;28;20207;-71
2023/08/30 09:06:37;;;;;;;8.80;8.13;;;;;;;17.64;67.54;100297.41;5033493;28;20176;-71
2023/08/30 09:09:04;;;;;;;7.73;7.43;;;;;;;17.81;68.13;100301.34;5033317;28;20222;-71
2023/08/30 09:11:32;;;;;;;8.73;8.23;;;;;;;17.75;67.09;100294.91;5033112;28;20179;-71
2023/08/30 09:14:16;;;;;;;8.83;8.13;;;;;;;17.76;66.11;100298.44;5033111;28;20196;-70
2023/08/30 09:16:57;;;;;;;8.43;8.13;;;;;;;17.88;66.25;100291.34;5033325;28;20170;-71
2023/08/30 09:19:24;;;;;;;9.40;8.37;;;;;;;17.84;66.77;100286.56;5033506;28;20203;-70
2023/08/30 09:21:55;;;;;;;11.03;9.87;;;;;;;18.06;66.62;100294.25;5033583;28;20187;-71
2023/08/30 09:24:22;;;;;;;11.10;10.30;;;;;;;18.05;65.12;100294.44;5033032;28;20188;-71
2023/08/30 09:26:50;;;;;;;11.63;10.57;;;;;;;18.00;65.57;100286.97;5036063;28;20188;-71
2023/08/30 09:29:18;;;;;;;10.90;10.07;;;;;;;17.89;66.46;100289.47;5037153;28;20622;-71
2023/08/30 09:31:45;;;;;;;8.90;8.33;;;;;;;17.85;66.60;100280.97;5037313;28;20176;-70
2023/08/30 09:34:12;;;;;;;11.30;9.47;;;;;;;17.76;65.95;100285.75;5037349;28;20252;-71
2023/08/30 09:36:42;;;;;;;10.50;9.50;;;;;;;17.77;66.21;100281.19;5037243;28;20238;-72
2023/08/30 09:39:14;;;;;;;9.53;8.67;;;;;;;17.78;67.00;100280.94;5037395;28;20552;-71
2023/08/30 09:41:45;;;;;;;11.67;10.13;;;;;;;17.69;67.74;100287.63;5036809;28;20234;-71
2023/08/30 09:44:20;;;;;;;10.50;9.27;;;;;;;17.57;68.85;100278.44;5037142;28;20208;-71
2023/08/30 09:46:50;;;;;;;14.87;9.17;;;;;;;17.45;69.05;100273.84;5037262;28;20184;-71
2023/08/30 09:49:23;;;;;;;10.53;8.23;;;;;;;17.25;71.33;100276.53;5036637;28;20274;-71
2023/08/30 09:51:54;;;;;;;8.93;8.10;;;;;;;17.11;71.54;100286.50;5037198;28;20620;-71
2023/08/30 09:54:25;;;;;;;7.60;7.40;;;;;;;16.85;74.71;100291.81;5036865;28;20267;-72
2023/08/30 09:56:57;;;;;;;9.17;8.23;;;;;;;16.49;77.75;100289.38;5036560;28;20172;-72
2023/08/30 09:59:24;;;;;;;7.60;7.30;;;;;;;16.27;78.22;100287.78;5036582;28;20207;-72
2023/08/30 10:01:52;;;;;;;8.33;7.80;;;;;;;16.19;80.11;100287.97;5036433;28;20194;-72
2023/08/30 10:04:20;;;;;;;7.87;7.47;;;;;;;16.10;81.03;100297.22;5036688;28;20195;-73
2023/08/30 10:06:47;;;;;;;8.67;8.20;;;;;;;16.16;81.16;100294.59;5036353;28;20196;-73
2023/08/30 10:09:15;;;;;;;7.73;7.07;;;;;;;16.08;81.71;100293.91;5036214;28;20204;-72
2023/08/30 10:11:46;;;;;;;7.13;6.93;;;;;;;15.98;81.72;100292.41;5036636;28;20195;-72
2023/08/30 10:14:13;;;;;;;7.27;6.60;;;;;;;15.90;82.01;100289.03;5036213;28;20195;-72
2023/08/30 10:16:47;;;;;;;6.70;6.40;;;;;;;15.79;82.15;100286.84;5036359;28;20552;-72
2023/08/30 10:19:24;;;;;;;6.50;6.27;;;;;;;15.75;82.56;100290.97;5036014;28;20206;-73
2023/08/30 10:22:03;;;;;;;7.70;7.10;;;;;;;15.68;82.87;100285.53;5036386;28;20623;-73
2023/08/30 10:24:35;;;;;;;6.87;6.37;;;;;;;15.64;83.12;100281.56;5036298;28;20198;-72
2023/08/30 10:27:15;;;;;;;7.83;7.33;;;;;;;15.60;83.69;100285.69;5036344;28;20175;-72
2023/08/30 10:29:44;;;;;;;9.27;8.00;;;;;;;15.51;83.92;100279.59;5036384;28;20349;-72
2023/08/30 10:32:10;;;;;;;7.17;7.07;;;;;;;15.42;84.39;100288.81;5035955;28;20722;-72
2023/08/30 10:34:37;;;;;;;9.27;8.47;;;;;;;15.42;84.91;100285.28;5036168;28;20619;-72
2023/08/30 10:37:07;;;;;;;9.70;9.10;;;;;;;15.41;84.78;100287.13;5035231;28;20218;-73
2023/08/30 10:39:39;;;;;;;8.93;8.50;;;;;;;15.34;85.36;100280.88;5035768;28;20258;-72
2023/08/30 10:42:13;;;;;;;8.20;7.90;;;;;;;15.38;85.65;100282.16;5036561;28;20178;-73
2023/08/30 10:44:56;;;;;;;8.93;8.33;;;;;;;15.34;86.00;100285.41;5035748;28;20237;-73
2023/08/30 10:47:39;;;;;;;9.93;9.13;;;;;;;15.38;86.30;100284.00;5035822;28;20198;-71
2023/08/30 10:50:09;;;;;;;10.23;9.43;;;;;;;15.39;86.14;100280.28;5035604;28;20208;-72
2023/08/30 10:52:35;;;;;;;8.93;8.23;;;;;;;15.38;86.46;100279.44;5035549;28;20184;-72
2023/08/30 10:55:14;;;;;;;10.67;10.07;;;;;;;15.41;86.49;100275.53;5035501;28;20172;-72
2023/08/30 10:57:43;;;;;;;8.17;7.77;;;;;;;15.36;87.09;100283.38;5035422;28;20180;-71
2023/08/30 11:00:20;;;;;;;12.93;9.20;;;;;;;15.36;87.05;100284.19;5035337;28;20188;-71
2023/08/30 11:02:50;;;;;;;11.87;9.67;;;;;;;15.39;87.06;100281.13;5035355;28;20555;-72
2023/08/30 11:05:20;;;;;;;10.33;9.47;;;;;;;15.39;87.14;100286.50;5035346;28;20267;-72
2023/08/30 11:07:49;;;;;;;11.63;10.73;;;;;;;15.37;86.90;100280.47;5035974;28;20187;-72
2023/08/30 11:10:15;;;;;;;12.83;11.20;;;;;;;15.38;87.58;100281.31;5035813;28;20533;-72
2023/08/30 11:12:45;;;;;;;11.70;10.83;;;;;;;15.38;88.01;100279.44;5035057;28;20241;-72
2023/08/30 11:15:16;;;;;;;11.23;10.53;;;;;;;15.33;88.07;100279.19;5035112;28;20187;-72
2023/08/30 11:17:43;;;;;;;12.43;11.60;;;;;;;15.35;88.26;100271.75;5034981;28;20184;-73